KABI/ABI METAR and TAF weather

Enter ICAO airport designator
Station Type Date Time Source
KABI METAR 2021/09/28 04:52 UTC NOAA

KABI 280452Z 14006KT 10SM CLR 23/14 A2994 RMK AO2 SLP111 T02280139


Station Type Date Time Source
KABI Decoded METAR 2021/09/28 04:52 UTC NOAA

ABILENE REGIONAL AIRPORT, TX, United States (KABI) 32-25N 099-41W 548M
Sep 28, 2021 - 12:52 AM EDT / 2021.09.28 0452 UTC
Wind: from the SE (140 degrees) at 7 MPH (6 KT):0
Visibility: 10 mile(s):0
Sky conditions: clear
Temperature: 73.0 F (22.8 C)
Dew Point: 57.0 F (13.9 C)
Relative Humidity: 57%
Pressure (altimeter): 29.94 in. Hg (1013 hPa)
ob: KABI 280452Z 14006KT 10SM CLR 23/14 A2994 RMK AO2 SLP111 T02280139
cycle: 5

Station Type Date Time Source
KABI TAF 2021/09/27 18:22 UTC NOAA

TAF KABI 271720Z 2718/2818 20012G19KT P6SM SCT250
FM280100 16008KT P6SM SCT250

Example: see airport list